createdAt,value
2016-04-20T08:26:49.844Z,1007.94
2016-04-20T08:27:49.847Z,1007.93
2016-04-20T08:28:49.849Z,1007.87
2016-04-20T08:29:49.836Z,1007.96
2016-04-20T08:30:50.058Z,1008.07
2016-04-20T08:31:49.857Z,1008.08
2016-04-20T08:32:49.860Z,1008.12
2016-04-20T08:33:49.863Z,1008.11
2016-04-20T08:34:50.099Z,1008.17
2016-04-20T08:35:49.868Z,1008.09
2016-04-20T08:36:49.871Z,1008.16
2016-04-20T08:37:49.873Z,1008.13
2016-04-20T08:38:49.876Z,1008.08
2016-04-20T08:39:49.879Z,1008.05
2016-04-20T08:40:49.882Z,1008.13
2016-04-20T08:41:49.900Z,1008.12
2016-04-20T08:42:50.106Z,1008.25
2016-04-20T08:44:49.924Z,1008.24
2016-04-20T08:45:49.942Z,1008.2
2016-04-20T08:47:50.120Z,1008.18
2016-04-20T08:48:49.935Z,1008.29
2016-04-20T08:49:50.140Z,1008.34
2016-04-20T08:50:49.940Z,1008.28
2016-04-20T08:51:50.145Z,1008.32
2016-04-20T08:52:49.945Z,1008.29
2016-04-20T08:53:49.948Z,1008.32
2016-04-20T08:54:49.950Z,1008.25
2016-04-20T08:55:49.953Z,1008.23
2016-04-20T08:56:49.971Z,1008.25
2016-04-20T08:57:49.975Z,1008.22
2016-04-20T08:58:49.977Z,1008.25
2016-04-20T08:59:49.980Z,1008.28
2016-04-20T09:00:49.983Z,1008.31
2016-04-20T09:01:49.985Z,1008.31
2016-04-20T09:02:50.003Z,1008.38
2016-04-20T09:03:50.005Z,1008.44
2016-04-20T09:04:50.008Z,1008.44
2016-04-20T09:05:50.010Z,1008.46
2016-04-20T09:06:50.014Z,1008.52
2016-04-20T09:07:50.016Z,1008.53
2016-04-20T09:08:50.035Z,1008.45
2016-04-20T09:09:50.038Z,1008.42
2016-04-20T09:10:50.041Z,1008.47
2016-04-20T09:11:50.043Z,1008.53
2016-04-20T09:12:50.077Z,1008.5
2016-04-20T09:13:50.049Z,1008.4
2016-04-20T09:14:50.082Z,1008.45
2016-04-20T09:15:50.054Z,1008.43
2016-04-20T09:16:50.275Z,1008.45
2016-04-20T09:17:50.075Z,1008.52
2016-04-20T09:18:50.109Z,1008.43
2016-04-20T09:19:50.081Z,1008.4
2016-04-20T09:20:50.098Z,1008.41
2016-04-20T09:21:50.092Z,1008.47
2016-04-20T09:22:50.103Z,1008.5
2016-04-20T09:23:50.106Z,1008.51
2016-04-20T09:24:50.108Z,1008.53
2016-04-20T09:25:50.127Z,1008.43
2016-04-20T09:26:50.113Z,1008.36
2016-04-20T09:27:50.132Z,1008.48
2016-04-20T09:28:50.151Z,1008.39
2016-04-20T09:29:50.138Z,1008.35
2016-04-20T09:30:50.156Z,1008.44
2016-04-20T09:31:50.159Z,1008.42
2016-04-20T09:32:50.161Z,1008.48
2016-04-20T09:33:50.179Z,1008.45
2016-04-20T09:34:50.198Z,1008.42
2016-04-20T09:35:50.184Z,1008.49
2016-04-20T09:36:50.187Z,1008.5
2016-04-20T09:37:50.189Z,1008.55
2016-04-20T09:38:50.193Z,1008.52
2016-04-20T09:39:50.195Z,1008.46
2016-04-20T09:40:50.417Z,1008.36
2016-04-20T09:41:50.217Z,1008.47
2016-04-20T09:42:50.422Z,1008.44
2016-04-20T09:43:50.222Z,1008.43
2016-04-20T09:44:50.224Z,1008.48
2016-04-20T09:45:50.242Z,1008.42
2016-04-20T09:46:50.245Z,1008.45
2016-04-20T09:47:50.248Z,1008.42
2016-04-20T09:48:50.267Z,1008.43
2016-04-20T09:49:50.582Z,1008.49
2016-04-20T09:50:50.475Z,1008.44
2016-04-20T09:51:50.290Z,1008.39
2016-04-20T09:52:50.324Z,1008.34
2016-04-20T09:53:50.296Z,1008.39
2016-04-20T09:54:50.299Z,1008.34
2016-04-20T09:55:50.316Z,1008.25
2016-04-20T09:56:50.319Z,1008.2
2016-04-20T09:57:50.525Z,1008.22
2016-04-20T09:58:50.340Z,1008.25
2016-04-20T09:59:50.327Z,1008.4
2016-04-20T10:00:50.345Z,1008.47
2016-04-20T10:01:50.348Z,1008.55
2016-04-20T10:02:50.351Z,1008.48
2016-04-20T10:03:50.369Z,1008.42
2016-04-20T10:04:50.387Z,1008.43
2016-04-20T10:05:50.375Z,1008.53
2016-04-20T10:06:50.377Z,1008.53
2016-04-20T10:07:50.598Z,1008.34
2016-04-20T10:08:50.586Z,1008.32
2016-04-20T10:09:50.589Z,1008.43
2016-04-20T10:10:50.420Z,1008.41
2016-04-20T10:11:50.422Z,1008.33
2016-04-20T10:13:50.443Z,1008.34
2016-04-20T10:15:50.448Z,1008.29
2016-04-20T10:18:50.472Z,1008.39
2016-04-20T10:21:50.480Z,1008.4
2016-04-20T10:24:50.504Z,1008.4
2016-04-20T10:25:50.507Z,1008.37
2016-04-20T10:26:50.524Z,1008.43
2016-04-20T10:27:50.637Z,1008.34
2016-04-20T10:28:50.530Z,1008.2
2016-04-20T10:29:50.533Z,1008.25
2016-04-20T10:30:50.551Z,1008.35
2016-04-20T10:31:50.570Z,1008.37
2016-04-20T10:32:50.776Z,1008.29
2016-04-20T10:33:50.576Z,1008.17
2016-04-20T10:34:50.563Z,1008.23
2016-04-20T10:35:50.581Z,1008.3
2016-04-20T10:36:50.614Z,1008.32
2016-04-20T10:37:50.586Z,1008.41
2016-04-20T10:38:50.604Z,1008.34
2016-04-20T10:39:50.606Z,1008.3
2016-04-20T10:40:50.626Z,1008.33
2016-04-20T10:41:50.831Z,1008.22
2016-04-20T10:42:50.628Z,1008.04
2016-04-20T10:43:50.631Z,1007.96
2016-04-20T10:44:50.648Z,1007.92
2016-04-20T10:46:50.967Z,1007.92
2016-04-20T10:47:50.876Z,1007.97
2016-04-20T10:48:51.131Z,1008
2016-04-20T10:49:50.975Z,1008.11
2016-04-20T10:50:50.805Z,1008.13
2016-04-20T10:51:50.699Z,1008.19
2016-04-20T10:52:51.092Z,1008.21
2016-04-20T10:53:50.704Z,1008.22
2016-04-20T10:54:50.722Z,1008.16
2016-04-20T10:55:50.725Z,1008.2
2016-04-20T10:56:50.728Z,1008.09
2016-04-20T10:57:50.730Z,1007.94
2016-04-20T10:58:50.749Z,1007.82
2016-04-20T10:59:51.063Z,1007.89
2016-04-20T11:00:51.098Z,1007.92
2016-04-20T11:01:50.773Z,1008.03
2016-04-20T11:02:50.776Z,1008
2016-04-20T11:03:50.810Z,1007.83
2016-04-20T11:04:51.031Z,1007.82
2016-04-20T11:05:51.299Z,1007.85
2016-04-20T11:06:50.817Z,1007.93
2016-04-20T11:07:50.867Z,1008.02
2016-04-20T11:08:50.823Z,1008.07
2016-04-20T11:09:50.841Z,1008.14
2016-04-20T11:10:50.890Z,1008.08
2016-04-20T11:11:51.081Z,1008.14
2016-04-20T11:12:50.849Z,1008.06
2016-04-20T11:13:50.868Z,1008.01
2016-04-20T11:14:51.073Z,1007.97
2016-04-20T11:15:50.889Z,1007.83
2016-04-20T11:16:50.922Z,1007.7
2016-04-20T11:17:51.128Z,1007.62
2016-04-20T11:18:51.100Z,1007.59
2016-04-20T11:19:50.915Z,1007.57
2016-04-20T11:20:51.325Z,1007.54
2016-04-20T11:21:51.123Z,1007.55
2016-04-20T11:22:50.939Z,1007.52
2016-04-20T11:23:51.144Z,1007.58
2016-04-20T11:24:51.147Z,1007.59
2016-04-20T11:25:50.963Z,1007.59
2016-04-20T11:26:50.980Z,1007.54
2016-04-20T11:27:50.999Z,1007.53
2016-04-20T11:28:50.985Z,1007.53
2016-04-20T11:29:50.988Z,1007.57
2016-04-20T11:30:51.397Z,1007.49
2016-04-20T11:31:51.010Z,1007.44
2016-04-20T11:32:52.028Z,1007.45
2016-04-20T11:33:51.438Z,1007.45
2016-04-20T11:34:51.862Z,1007.43
2016-04-20T11:35:52.755Z,1007.47
2016-04-20T11:36:51.054Z,1007.49
2016-04-20T11:37:51.041Z,1007.42
2016-04-20T11:38:51.060Z,1007.41
2016-04-20T11:39:51.047Z,1007.5
2016-04-20T11:40:51.065Z,1007.57
2016-04-20T11:41:51.271Z,1007.44
2016-04-20T11:42:51.273Z,1007.52
2016-04-20T11:43:51.089Z,1007.68
2016-04-20T11:44:51.075Z,1007.68
2016-04-20T11:45:51.110Z,1007.52
2016-04-20T11:46:51.300Z,1007.46
2016-04-20T11:47:51.114Z,1007.46
2016-04-20T11:48:51.415Z,1007.35
2016-04-20T11:49:51.120Z,1007.38
2016-04-20T11:50:51.123Z,1007.39
2016-04-20T11:51:51.142Z,1007.38
2016-04-20T11:52:51.128Z,1007.42
2016-04-20T11:54:51.166Z,1007.4
2016-04-20T11:55:51.152Z,1007.42
2016-04-20T11:56:51.171Z,1007.44
2016-04-20T11:57:51.173Z,1007.39
2016-04-20T11:58:51.176Z,1007.42
2016-04-20T11:59:51.336Z,1007.39
2016-04-20T12:00:51.182Z,1007.55
2016-04-20T12:02:51.202Z,1007.53
2016-04-20T12:03:51.204Z,1007.46
2016-04-20T12:04:51.410Z,1007.57
2016-04-20T12:05:51.227Z,1007.54
2016-04-20T12:06:51.229Z,1007.5
2016-04-20T12:07:51.372Z,1007.5
2016-04-20T12:08:51.234Z,1007.45
2016-04-20T12:09:51.252Z,1007.54
2016-04-20T12:10:51.411Z,1007.5
2016-04-20T12:11:51.336Z,1007.63
2016-04-20T12:12:51.261Z,1007.61
2016-04-20T12:13:51.279Z,1007.53
2016-04-20T12:14:51.282Z,1007.56
2016-04-20T12:15:51.347Z,1007.53
2016-04-20T12:16:51.286Z,1007.56
2016-04-20T12:17:51.306Z,1007.74
2016-04-20T12:18:51.309Z,1007.79
2016-04-20T12:19:51.311Z,1007.86
2016-04-20T12:20:51.329Z,1007.84
2016-04-20T12:21:51.331Z,1007.93
2016-04-20T12:22:51.334Z,1007.93
2016-04-20T12:23:51.337Z,1007.93
2016-04-20T12:24:51.339Z,1007.88
2016-04-20T12:25:51.358Z,1007.85
2016-04-20T12:26:51.376Z,1007.86
2016-04-20T12:27:51.379Z,1007.8
2016-04-20T12:28:51.382Z,1007.75
2016-04-20T12:29:51.385Z,1007.81
2016-04-20T12:30:51.402Z,1007.92
2016-04-20T12:31:51.406Z,1007.86
2016-04-20T12:32:51.470Z,1007.96
2016-04-20T12:33:51.410Z,1007.84
2016-04-20T12:34:51.429Z,1007.78
2016-04-20T12:35:51.447Z,1007.82
2016-04-20T12:36:51.450Z,1007.8
2016-04-20T12:37:51.453Z,1007.8
2016-04-20T12:38:51.502Z,1007.75
2016-04-20T12:39:51.474Z,1007.71
2016-04-20T12:40:51.477Z,1007.75
2016-04-20T12:41:51.480Z,1007.74
2016-04-20T12:42:51.498Z,1007.68
2016-04-20T12:44:51.518Z,1007.74
2016-04-20T12:45:51.537Z,1007.76
2016-04-20T12:46:51.524Z,1007.79
2016-04-20T12:47:51.543Z,1007.71
2016-04-20T12:48:51.561Z,1007.8
2016-04-20T12:49:51.548Z,1007.68
2016-04-20T12:50:51.581Z,1007.86
2016-04-20T12:51:51.569Z,1007.85
2016-04-20T12:52:51.587Z,1007.81
2016-04-20T12:53:51.808Z,1007.81
2016-04-20T12:54:51.811Z,1007.76
2016-04-20T12:55:51.626Z,1007.66
2016-04-20T12:56:51.629Z,1007.72
2016-04-20T12:57:51.631Z,1007.68
2016-04-20T12:58:51.650Z,1007.65
2016-04-20T12:59:51.653Z,1007.56
2016-04-20T13:00:51.671Z,1007.61
2016-04-20T13:01:51.673Z,1007.74
2016-04-20T13:02:51.676Z,1007.74
2016-04-20T13:03:51.727Z,1007.79
2016-04-20T13:04:51.729Z,1007.68
2016-04-20T13:05:51.778Z,1007.61
2016-04-20T13:06:51.718Z,1007.51
2016-04-20T13:07:51.737Z,1007.47
2016-04-20T13:08:51.755Z,1007.45
2016-04-20T13:09:51.930Z,1007.51
2016-04-20T13:10:51.760Z,1007.45
2016-04-20T13:11:52.012Z,1007.39
2016-04-20T13:12:51.781Z,1007.37
2016-04-20T13:13:52.003Z,1007.32
2016-04-20T13:14:51.818Z,1007.29
2016-04-20T13:15:51.805Z,1007.34
2016-04-20T13:16:51.854Z,1007.27
2016-04-20T13:17:51.920Z,1007.3
2016-04-20T13:18:51.845Z,1007.32
2016-04-20T13:19:51.862Z,1007.37
2016-04-20T13:20:51.912Z,1007.33
2016-04-20T13:21:52.071Z,1007.38
2016-04-20T13:22:51.870Z,1007.44
2016-04-20T13:23:52.123Z,1007.56
2016-04-20T13:24:52.141Z,1007.57
2016-04-20T13:25:51.910Z,1007.5
2016-04-20T13:27:51.947Z,1007.56
2016-04-20T13:28:52.169Z,1007.41
2016-04-20T13:29:51.952Z,1007.35
2016-04-20T13:30:51.955Z,1007.31
2016-04-20T13:31:51.957Z,1007.35
2016-04-20T13:32:51.961Z,1007.32
2016-04-20T13:33:51.978Z,1007.39
2016-04-20T13:34:51.981Z,1007.37
2016-04-20T13:35:52.093Z,1007.45
2016-04-20T13:36:52.205Z,1007.52
2016-04-20T13:37:52.020Z,1007.54
2016-04-20T13:38:52.024Z,1007.43
2016-04-20T13:39:52.026Z,1007.36
2016-04-20T13:40:52.044Z,1007.44
2016-04-20T13:41:52.063Z,1007.41
2016-04-20T13:42:52.065Z,1007.44
2016-04-20T13:45:52.120Z,1007.32
2016-04-20T13:46:52.107Z,1007.31
2016-04-20T13:47:52.109Z,1007.35
2016-04-20T13:48:52.113Z,1007.29
2016-04-20T13:49:52.131Z,1007.36
2016-04-20T13:50:52.196Z,1007.33
2016-04-20T13:51:52.151Z,1007.39
2016-04-20T13:52:52.155Z,1007.41
2016-04-20T13:53:52.173Z,1007.43
2016-04-20T13:54:52.175Z,1007.35
2016-04-20T13:55:52.897Z,1007.36
2016-04-20T13:56:52.197Z,1007.32
2016-04-20T13:57:52.199Z,1007.38
2016-04-20T13:58:52.218Z,1007.26
2016-04-20T13:59:52.236Z,1007.31
2016-04-20T14:00:52.239Z,1007.31
2016-04-20T14:01:52.445Z,1007.32
2016-04-20T14:02:52.260Z,1007.39
2016-04-20T14:03:52.263Z,1007.37
2016-04-20T14:04:52.265Z,1007.3
2016-04-20T14:05:52.283Z,1007.3
2016-04-20T14:07:52.305Z,1007.3
2016-04-20T14:08:52.322Z,1007.37
2016-04-20T14:09:52.357Z,1007.43
2016-04-20T14:10:52.328Z,1007.51
2016-04-20T14:11:52.362Z,1007.54
2016-04-20T14:12:52.349Z,1007.47
2016-04-20T14:13:52.586Z,1007.4
2016-04-20T14:14:52.589Z,1007.45
2016-04-20T14:15:52.373Z,1007.34
2016-04-20T14:16:52.578Z,1007.3
2016-04-20T14:17:52.831Z,1007.29
2016-04-20T14:18:52.396Z,1007.3
2016-04-20T14:19:52.399Z,1007.31
2016-04-20T14:20:52.480Z,1007.33
2016-04-20T14:21:52.420Z,1007.29
2016-04-20T14:22:52.424Z,1007.26
2016-04-20T14:23:52.457Z,1007.29
2016-04-20T14:24:52.445Z,1007.24
2016-04-20T14:25:52.463Z,1007.2
2016-04-20T14:26:52.466Z,1007.28
2016-04-20T14:27:52.484Z,1007.26
2016-04-20T14:28:52.596Z,1007.31
2016-04-20T14:29:52.724Z,1007.32
2016-04-20T14:30:52.508Z,1007.31
2016-04-20T14:31:53.151Z,1007.29
2016-04-20T14:32:52.934Z,1007.25
2016-04-20T14:33:52.531Z,1007.24
2016-04-20T14:34:52.550Z,1007.23
2016-04-20T14:35:52.756Z,1007.17
2016-04-20T14:36:52.555Z,1007.17
2016-04-20T14:37:52.558Z,1007.25
2016-04-20T14:38:52.576Z,1007.21
2016-04-20T14:39:52.579Z,1007.14
2016-04-20T14:40:52.597Z,1007.16
2016-04-20T14:41:52.803Z,1007.09
2016-04-20T14:42:52.619Z,1007.09
2016-04-20T14:43:52.621Z,1007.08
2016-04-20T14:44:52.624Z,1007.11
2016-04-20T14:45:52.642Z,1007.12
2016-04-20T14:46:52.645Z,1007.1
2016-04-20T14:47:52.663Z,1007.08
2016-04-20T14:48:52.681Z,1007.05
2016-04-20T14:49:52.684Z,1007.09
2016-04-20T14:50:52.686Z,1007.05
2016-04-20T14:51:52.689Z,1007.01
2016-04-20T14:52:52.707Z,1007.01
2016-04-20T14:53:52.710Z,1006.99
2016-04-20T14:54:52.713Z,1006.97
2016-04-20T14:55:52.763Z,1006.93
2016-04-20T14:56:52.749Z,1006.95
2016-04-20T14:57:52.752Z,1006.95
2016-04-20T14:58:52.755Z,1007
2016-04-20T14:59:52.774Z,1007.07
2016-04-20T15:00:52.776Z,1007.09
2016-04-20T15:01:52.779Z,1007.16
2016-04-20T15:02:52.781Z,1007.11
2016-04-20T15:03:52.800Z,1007.1
2016-04-20T15:04:52.802Z,1007.14
2016-04-20T15:05:53.023Z,1007.12
2016-04-20T15:06:52.839Z,1007.06
2016-04-20T15:07:52.857Z,1007.08
2016-04-20T15:08:52.860Z,1007.11
2016-04-20T15:09:52.848Z,1007.04
2016-04-20T15:10:52.881Z,1007.05
2016-04-20T15:12:52.886Z,1007.15
2016-04-20T15:13:52.889Z,1007.2
2016-04-20T15:14:52.907Z,1007.18
2016-04-20T15:15:52.910Z,1007.12
2016-04-20T15:16:53.116Z,1007.02
2016-04-20T15:17:52.930Z,1007.05
2016-04-20T15:18:52.933Z,1007.04
2016-04-20T15:19:52.952Z,1007.05
2016-04-20T15:20:52.986Z,1007.12
2016-04-20T15:21:52.957Z,1007.11
2016-04-20T15:22:53.601Z,1007.08
2016-04-20T15:23:53.213Z,1007.06
2016-04-20T15:24:52.996Z,1007.06
2016-04-20T15:25:52.999Z,1007.09
2016-04-20T15:26:53.002Z,1007.07
2016-04-20T15:27:53.020Z,1006.98
2016-04-20T15:28:53.024Z,1006.95
2016-04-20T15:29:53.041Z,1006.97
2016-04-20T15:30:53.044Z,1006.94
2016-04-20T15:31:53.250Z,1006.94
2016-04-20T15:32:53.049Z,1006.98
2016-04-20T15:33:53.084Z,1006.95
2016-04-20T15:34:53.070Z,1006.99
2016-04-20T15:35:53.078Z,1006.99
2016-04-20T15:36:53.299Z,1006.99
2016-04-20T15:37:53.333Z,1007.03
2016-04-20T15:38:53.117Z,1007.01
2016-04-20T15:39:53.119Z,1007.03
2016-04-20T15:40:53.123Z,1007.06
2016-04-20T15:41:53.141Z,1007.08
2016-04-20T15:42:53.144Z,1007.09
2016-04-20T15:43:53.147Z,1007.04
2016-04-20T15:44:53.369Z,1007.07
2016-04-20T15:45:53.167Z,1007.03
2016-04-20T15:46:53.374Z,1007.08
2016-04-20T15:47:53.392Z,1007.12
2016-04-20T15:48:53.192Z,1007.14
2016-04-20T15:49:53.194Z,1007.12
2016-04-20T15:50:53.400Z,1007.1
2016-04-20T15:51:53.621Z,1007.14
2016-04-20T15:52:53.218Z,1007.23
2016-04-20T15:53:53.424Z,1007.09
2016-04-20T15:54:53.238Z,1007.13
2016-04-20T15:55:53.241Z,1007.11
2016-04-20T15:56:53.259Z,1007.08
2016-04-20T15:57:53.262Z,1006.97
2016-04-20T15:58:53.302Z,1007
2016-04-20T15:59:53.346Z,1006.97
2016-04-20T16:00:53.407Z,1006.98
2016-04-20T16:01:53.451Z,1006.95
2016-04-20T16:02:53.499Z,1006.96
2016-04-20T16:03:53.520Z,1006.94
2016-04-20T16:04:53.552Z,1006.9
2016-04-20T16:06:56.848Z,1006.89
2016-04-20T16:07:56.878Z,1006.92
2016-04-20T16:08:56.886Z,1006.84
2016-04-20T16:09:57.098Z,1006.92
2016-04-20T16:10:56.902Z,1006.96
2016-04-20T16:11:56.927Z,1006.93
2016-04-20T16:12:56.933Z,1006.92
2016-04-20T16:13:56.938Z,1006.91
2016-04-20T16:14:56.943Z,1006.93
2016-04-20T16:15:56.964Z,1006.86
2016-04-20T16:16:56.967Z,1006.9
2016-04-20T16:17:56.972Z,1006.84
2016-04-20T16:18:56.976Z,1006.87
2016-04-20T16:19:57.197Z,1006.87
2016-04-20T16:20:56.998Z,1006.86
2016-04-20T16:21:57.017Z,1006.85
2016-04-20T16:22:57.021Z,1006.85
2016-04-20T16:23:57.226Z,1006.81
2016-04-20T16:24:57.229Z,1006.88
2016-04-20T16:25:57.029Z,1006.81
2016-04-20T16:26:57.047Z,1006.85
2016-04-20T16:27:57.050Z,1006.84
2016-04-20T16:28:57.053Z,1006.83
2016-04-20T16:29:57.072Z,1006.87
2016-04-20T16:30:57.091Z,1006.82
2016-04-20T16:31:57.077Z,1006.81
2016-04-20T16:32:57.064Z,1006.83
2016-04-20T16:33:57.082Z,1006.85
2016-04-20T16:34:57.085Z,1006.86
2016-04-20T16:35:57.104Z,1006.81
2016-04-20T16:36:57.106Z,1006.83
2016-04-20T16:37:57.109Z,1006.77
2016-04-20T16:38:57.112Z,1006.8
2016-04-20T16:39:57.130Z,1006.8
2016-04-20T16:40:57.132Z,1006.8
2016-04-20T16:41:57.151Z,1006.8
2016-04-20T16:42:57.154Z,1006.82
2016-04-20T16:43:57.156Z,1006.78
2016-04-20T16:44:57.565Z,1006.77
2016-04-20T16:45:57.162Z,1006.73
2016-04-20T16:46:57.164Z,1006.74
2016-04-20T16:47:57.151Z,1006.73
2016-04-20T16:48:57.186Z,1006.71
2016-04-20T16:49:57.189Z,1006.7
2016-04-20T16:51:57.178Z,1006.68
2016-04-20T16:52:57.181Z,1006.68
2016-04-20T16:53:57.199Z,1006.68
2016-04-20T16:54:57.186Z,1006.64
2016-04-20T16:55:57.189Z,1006.65
2016-04-20T16:56:57.207Z,1006.62
2016-04-20T16:57:57.210Z,1006.6
2016-04-20T16:58:57.213Z,1006.61
2016-04-20T16:59:57.216Z,1006.53
2016-04-20T17:00:57.233Z,1006.57
2016-04-20T17:01:57.236Z,1006.6
2016-04-20T17:02:57.223Z,1006.61
2016-04-20T17:03:57.241Z,1006.57
2016-04-20T17:04:57.244Z,1006.62
2016-04-20T17:05:57.247Z,1006.61
2016-04-20T17:06:57.249Z,1006.62
2016-04-20T17:07:57.408Z,1006.59
2016-04-20T17:08:57.271Z,1006.56
2016-04-20T17:09:57.273Z,1006.56
2016-04-20T17:10:57.276Z,1006.54
2016-04-20T17:11:57.279Z,1006.55
2016-04-20T17:12:57.485Z,1006.54
2016-04-20T17:13:57.284Z,1006.53
2016-04-20T17:14:57.287Z,1006.52
2016-04-20T17:15:57.290Z,1006.53
2016-04-20T17:16:57.308Z,1006.54
2016-04-20T17:17:57.529Z,1006.49
2016-04-20T17:19:57.315Z,1006.54
2016-04-20T17:20:57.318Z,1006.51
2016-04-20T17:21:57.321Z,1006.51
2016-04-20T17:22:57.340Z,1006.55
2016-04-20T17:23:57.358Z,1006.52
2016-04-20T17:24:57.329Z,1006.55
2016-04-20T17:25:57.332Z,1006.53
2016-04-20T17:26:57.334Z,1006.53
2016-04-20T17:27:57.352Z,1006.54
2016-04-20T17:28:57.355Z,1006.54
2016-04-20T17:30:57.392Z,1006.53
2016-04-20T17:31:57.379Z,1006.52
2016-04-20T17:32:57.367Z,1006.54
2016-04-20T17:33:57.463Z,1006.54
2016-04-20T17:34:57.419Z,1006.55
2016-04-20T17:35:57.375Z,1006.56
2016-04-20T17:36:57.393Z,1006.57
2016-04-20T17:37:57.411Z,1006.53
2016-04-20T17:38:57.398Z,1006.57
2016-04-20T17:39:57.807Z,1006.54
2016-04-20T17:40:57.560Z,1006.55
2016-04-20T17:41:57.610Z,1006.6
2016-04-20T17:42:57.472Z,1006.56
2016-04-20T17:43:57.412Z,1006.58
2016-04-20T17:44:57.415Z,1006.57
2016-04-20T17:45:57.418Z,1006.53
2016-04-20T17:46:57.451Z,1006.53
2016-04-20T17:47:57.423Z,1006.51
2016-04-20T17:48:57.425Z,1006.52
2016-04-20T17:49:57.444Z,1006.52
2016-04-20T17:50:57.431Z,1006.48
2016-04-20T17:51:57.668Z,1006.52
2016-04-20T17:52:57.483Z,1006.49
2016-04-20T17:54:00.070Z,1006.51
2016-04-20T17:54:57.448Z,1006.53
2016-04-20T17:55:57.450Z,1006.52
2016-04-20T17:56:57.453Z,1006.53
2016-04-20T17:57:57.456Z,1006.52
2016-04-20T17:58:57.473Z,1006.51
2016-04-20T17:59:57.664Z,1006.47
2016-04-20T18:00:57.494Z,1006.49
2016-04-20T18:01:57.716Z,1006.51
2016-04-20T18:02:57.500Z,1006.5
2016-04-20T18:03:57.517Z,1006.5
2016-04-20T18:04:57.490Z,1006.48
2016-04-20T18:05:57.477Z,1006.44
2016-04-20T18:06:57.478Z,1006.49
2016-04-20T18:07:57.495Z,1006.45
2016-04-20T18:08:57.499Z,1006.47
2016-04-20T18:09:57.486Z,1006.47
2016-04-20T18:10:57.488Z,1006.47
2016-04-20T18:11:57.507Z,1006.46
2016-04-20T18:12:57.509Z,1006.5
2016-04-20T18:13:57.511Z,1006.47
2016-04-20T18:14:57.499Z,1006.53
2016-04-20T18:15:57.517Z,1006.5
2016-04-20T18:16:57.520Z,1006.51
2016-04-20T18:18:57.514Z,1006.5
2016-04-20T18:19:57.516Z,1006.47
2016-04-20T18:20:57.770Z,1006.46
2016-04-20T18:21:57.573Z,1006.46
2016-04-20T18:22:57.545Z,1006.48
2016-04-20T18:23:57.532Z,1006.51
2016-04-20T18:24:57.534Z,1006.49
2016-04-20T18:25:57.536Z,1006.47
2016-04-20T18:26:57.744Z,1006.5
2016-04-20T18:28:57.780Z,1006.49
2016-04-20T18:29:57.548Z,1006.49
2016-04-20T18:30:57.550Z,1006.5
2016-04-20T18:31:57.553Z,1006.51
2016-04-20T18:32:57.556Z,1006.53
2016-04-20T18:33:57.558Z,1006.51
2016-04-20T18:34:57.577Z,1006.5
2016-04-20T18:35:57.564Z,1006.53
2016-04-20T18:36:57.786Z,1006.53
2016-04-20T18:37:57.585Z,1006.51
2016-04-20T18:39:57.779Z,1006.48
2016-04-20T18:40:57.782Z,1006.53
2016-04-20T18:41:57.784Z,1006.52
2016-04-20T18:42:57.583Z,1006.5
2016-04-20T18:43:57.585Z,1006.57
2016-04-20T18:44:57.588Z,1006.55
2016-04-20T18:45:57.590Z,1006.55
2016-04-20T18:46:57.626Z,1006.55
2016-04-20T18:47:57.596Z,1006.54
2016-04-20T18:48:57.599Z,1006.55
2016-04-20T18:49:57.601Z,1006.53
2016-04-20T18:50:57.823Z,1006.55
2016-04-20T18:51:57.622Z,1006.58
2016-04-20T18:52:57.610Z,1006.57
2016-04-20T18:53:57.612Z,1006.62
2016-04-20T18:54:57.615Z,1006.59
2016-04-20T18:55:57.618Z,1006.6
2016-04-20T18:56:57.605Z,1006.65
2016-04-20T18:57:57.842Z,1006.63
2016-04-20T18:58:57.861Z,1006.63
2016-04-20T18:59:57.613Z,1006.66
2016-04-20T19:00:57.851Z,1006.63
2016-04-20T19:01:57.619Z,1006.65
2016-04-20T19:02:57.621Z,1006.67
2016-04-20T19:03:57.702Z,1006.65
2016-04-20T19:04:57.830Z,1006.63
2016-04-20T19:05:57.630Z,1006.68
2016-04-20T19:06:57.742Z,1006.65
2016-04-20T19:07:57.728Z,1006.65
2016-04-20T19:08:57.809Z,1006.64
2016-04-20T19:09:57.687Z,1006.65
2016-04-20T19:10:57.752Z,1006.69
2016-04-20T19:11:57.785Z,1006.69
2016-04-20T19:12:57.743Z,1006.68
2016-04-20T19:13:57.713Z,1006.69
2016-04-20T19:14:57.638Z,1006.72
2016-04-20T19:15:57.657Z,1006.67
2016-04-20T19:16:57.706Z,1006.7
2016-04-20T19:17:57.676Z,1006.71
2016-04-20T19:18:57.883Z,1006.73
2016-04-20T19:19:57.776Z,1006.71
2016-04-20T19:20:57.670Z,1006.74
2016-04-20T19:21:57.767Z,1006.79
2016-04-20T19:22:57.722Z,1006.75
2016-04-20T19:23:57.662Z,1006.8
2016-04-20T19:24:57.664Z,1006.78
2016-04-20T19:25:57.714Z,1006.77
2016-04-20T19:26:57.670Z,1006.77
2016-04-20T19:27:57.861Z,1006.76
2016-04-20T19:28:57.675Z,1006.75
2016-04-20T19:29:58.006Z,1006.77
2016-04-20T19:30:57.697Z,1006.72
2016-04-20T19:31:57.668Z,1006.74
2016-04-20T19:32:57.687Z,1006.71
2016-04-20T19:33:57.689Z,1006.71
2016-04-20T19:34:57.691Z,1006.7
2016-04-20T19:36:57.682Z,1006.73
2016-04-20T19:37:57.684Z,1006.69
2016-04-20T19:38:57.688Z,1006.74
2016-04-20T19:39:57.721Z,1006.7
2016-04-20T19:40:57.693Z,1006.74
2016-04-20T19:41:57.696Z,1006.73
2016-04-20T19:42:57.698Z,1006.76
2016-04-20T19:43:57.685Z,1006.76
2016-04-20T19:44:57.687Z,1006.75
2016-04-20T19:45:57.690Z,1006.75
2016-04-20T19:46:57.693Z,1006.74
2016-04-20T19:47:57.696Z,1006.77
2016-04-20T19:48:57.714Z,1006.79
2016-04-20T19:49:57.701Z,1006.79
2016-04-20T19:50:57.704Z,1006.76
2016-04-20T19:51:57.722Z,1006.77
2016-04-20T19:52:57.709Z,1006.82
2016-04-20T19:53:57.711Z,1006.83
2016-04-20T19:54:57.933Z,1006.82
2016-04-20T19:55:57.701Z,1006.83
2016-04-20T19:56:57.736Z,1006.86
2016-04-20T19:57:57.722Z,1006.87
2016-04-20T19:58:57.709Z,1006.86
2016-04-20T19:59:57.712Z,1006.84
2016-04-20T20:00:57.715Z,1006.84
2016-04-20T20:01:57.702Z,1006.83
2016-04-20T20:02:57.705Z,1006.85
2016-04-20T20:03:57.707Z,1006.84
2016-04-20T20:04:57.726Z,1006.84
2016-04-20T20:05:57.713Z,1006.81
2016-04-20T20:06:57.731Z,1006.82
2016-04-20T20:07:57.702Z,1006.81
2016-04-20T20:08:57.721Z,1006.84
2016-04-20T20:09:57.707Z,1006.82
2016-04-20T20:10:57.710Z,1006.81
2016-04-20T20:11:57.714Z,1006.86
2016-04-20T20:12:57.715Z,1006.86
2016-04-20T20:13:57.718Z,1006.84
2016-04-20T20:14:57.737Z,1006.83
2016-04-20T20:15:57.740Z,1006.81
2016-04-20T20:16:57.711Z,1006.81
2016-04-20T20:17:57.713Z,1006.82
2016-04-20T20:18:57.716Z,1006.76
2016-04-20T20:19:57.719Z,1006.78
2016-04-20T20:21:57.719Z,1006.76
2016-04-20T20:22:57.714Z,1006.8
2016-04-20T20:23:57.764Z,1006.78
2016-04-20T20:24:57.719Z,1006.77
2016-04-20T20:25:57.722Z,1006.78
2016-04-20T20:26:57.724Z,1006.74
2016-04-20T20:27:57.712Z,1006.77
2016-04-20T20:28:57.761Z,1006.78
2016-04-20T20:29:57.716Z,1006.8
2016-04-20T20:30:57.923Z,1006.83
2016-04-20T20:31:57.722Z,1006.83
2016-04-20T20:32:57.725Z,1006.81
2016-04-20T20:33:57.727Z,1006.79
2016-04-20T20:34:57.715Z,1006.8
2016-04-20T20:35:57.733Z,1006.79
2016-04-20T20:36:57.735Z,1006.78
2016-04-20T20:37:57.755Z,1006.72
2016-04-20T20:38:57.726Z,1006.74
2016-04-20T20:39:57.728Z,1006.76
2016-04-20T20:40:57.715Z,1006.75
2016-04-20T20:41:57.718Z,1006.79
2016-04-20T20:42:57.720Z,1006.83
2016-04-20T20:43:57.723Z,1006.78
2016-04-20T20:44:57.726Z,1006.85
2016-04-20T20:45:57.728Z,1006.81
2016-04-20T20:46:57.716Z,1006.85
2016-04-20T20:47:57.718Z,1006.89
2016-04-20T20:48:57.720Z,1006.83
2016-04-20T20:49:57.724Z,1006.88
2016-04-20T20:50:57.726Z,1006.86
2016-04-20T20:51:57.963Z,1006.88
2016-04-20T20:52:57.763Z,1006.83
2016-04-20T20:53:57.720Z,1006.81
2016-04-20T20:54:57.722Z,1006.8
2016-04-20T20:55:57.725Z,1006.79
2016-04-20T20:56:57.727Z,1006.76
2016-04-20T20:57:57.745Z,1006.73
2016-04-20T20:58:57.763Z,1006.73
2016-04-20T21:00:00.111Z,1006.76
2016-04-20T21:00:57.925Z,1006.72
2016-04-20T21:01:57.726Z,1006.73
2016-04-20T21:02:57.712Z,1006.72